Time;durP1;ratioP1;P1;durP2;ratioP2;P2;SDS_P1;SDS_P2;PMS_P1;PMS_P2;Temp;Humidity;BMP_temperature;BMP_pressure;BME280_temperature;BME280_humidity;BME280_pressure;Samples;Min_cycle;Max_cycle;Signal;HPM_P1;HPM_P2
2023/07/30 00:01:33;;;;;;;2.97;1.83;;;18.00;99.90;;;18.28;100.00;100440.16;5199187;28;20049;-49
2023/07/30 00:04:06;;;;;;;2.15;1.63;;;18.00;99.90;;;18.28;100.00;100444.56;5199932;28;20671;-49
2023/07/30 00:06:38;;;;;;;3.17;1.65;;;18.00;99.90;;;18.26;100.00;100436.66;5199221;28;20053;-49
2023/07/30 00:09:10;;;;;;;2.42;1.63;;;18.00;99.90;;;18.23;100.00;100451.59;5199147;28;20510;-49
2023/07/30 00:11:44;;;;;;;2.60;1.52;;;17.90;99.90;;;18.20;100.00;100444.59;5198702;28;20041;-48
2023/07/30 00:14:16;;;;;;;2.40;1.80;;;17.90;99.90;;;18.17;100.00;100441.94;5191148;28;20522;-49
2023/07/30 00:16:49;;;;;;;1.98;1.50;;;17.90;99.90;;;18.13;100.00;100441.06;5204084;28;20056;-50
2023/07/30 00:19:21;;;;;;;2.47;1.52;;;17.80;99.90;;;18.11;100.00;100441.94;5194823;28;20521;-49
2023/07/30 00:21:53;;;;;;;2.63;1.63;;;17.80;99.90;;;18.09;100.00;100443.72;5191507;28;20095;-50
2023/07/30 00:24:26;;;;;;;2.35;1.50;;;17.80;99.90;;;18.07;100.00;100440.22;5192335;28;20041;-50
2023/07/30 00:26:59;;;;;;;1.77;1.52;;;17.80;99.90;;;18.05;100.00;100440.19;5191310;28;20810;-50
2023/07/30 00:29:32;;;;;;;2.30;1.55;;;17.80;99.90;;;18.06;100.00;100441.06;5186711;28;20095;-49
2023/07/30 00:32:05;;;;;;;2.10;1.60;;;17.70;99.90;;;18.04;100.00;100446.34;5195315;28;20041;-49
2023/07/30 00:34:40;;;;;;;2.60;1.60;;;17.70;99.90;;;18.04;100.00;100440.19;5198634;28;20045;-50
2023/07/30 00:37:13;;;;;;;2.38;1.58;;;17.70;99.90;;;18.02;100.00;100448.13;5196669;28;20549;-49
2023/07/30 00:39:45;;;;;;;2.28;1.52;;;17.70;99.90;;;17.99;100.00;100442.84;5195079;28;20091;-50
2023/07/30 00:42:19;;;;;;;2.15;1.42;;;17.70;99.90;;;17.95;100.00;100446.38;5202993;28;20041;-49
2023/07/30 00:44:52;;;;;;;2.15;1.65;;;17.70;99.90;;;17.90;100.00;100450.75;5189105;28;20049;-49
2023/07/30 00:47:24;;;;;;;1.92;1.63;;;17.60;99.90;;;17.86;100.00;100446.34;5190818;28;20056;-49
2023/07/30 00:49:58;;;;;;;2.42;1.50;;;17.60;99.90;;;17.84;100.00;100456.03;5201693;28;20548;-49
2023/07/30 00:52:34;;;;;;;2.30;1.60;;;17.60;99.90;;;17.83;100.00;100451.66;5202467;28;20056;-49
2023/07/30 00:55:09;;;;;;;2.65;1.58;;;17.60;99.90;;;17.81;100.00;100450.78;5195818;28;20065;-49
2023/07/30 00:57:43;;;;;;;2.35;1.70;;;17.50;99.90;;;17.79;100.00;100455.16;5202118;28;20045;-49
2023/07/30 01:00:16;;;;;;;2.45;1.40;;;17.50;99.90;;;17.75;100.00;100458.69;5202394;28;20144;-49
2023/07/30 01:02:48;;;;;;;1.98;1.35;;;17.50;99.90;;;17.72;100.00;100453.41;5203436;28;20041;-49
2023/07/30 01:05:21;;;;;;;1.65;1.40;;;17.50;99.90;;;17.68;100.00;100451.63;5204300;28;20042;-49
2023/07/30 01:07:53;;;;;;;2.00;1.60;;;17.40;99.90;;;17.65;100.00;100457.75;5201708;28;20064;-49
2023/07/30 01:10:27;;;;;;;1.80;1.33;;;17.40;99.90;;;17.64;100.00;100456.88;5202333;28;20045;-50
2023/07/30 01:13:02;;;;;;;2.08;1.52;;;17.40;99.90;;;17.63;100.00;100455.13;5201713;28;20052;-50
2023/07/30 01:15:35;;;;;;;2.60;1.65;;;17.40;99.90;;;17.62;100.00;100468.31;5202299;28;20065;-49
2023/07/30 01:18:08;;;;;;;1.90;1.42;;;17.40;99.90;;;17.59;100.00;100466.53;5201700;28;20065;-49
2023/07/30 01:20:43;;;;;;;2.72;1.60;;;17.40;99.90;;;17.56;100.00;100471.81;5202195;28;20057;-49
2023/07/30 01:23:17;;;;;;;1.98;1.48;;;17.30;99.90;;;17.54;100.00;100472.66;5202315;28;20045;-49
2023/07/30 01:25:58;;;;;;;2.38;1.40;;;17.30;99.90;;;17.51;100.00;100473.56;5201261;28;20049;-49
2023/07/30 01:28:38;;;;;;;2.20;1.58;;;17.30;99.90;;;17.50;100.00;100477.06;5201491;28;20041;-49
2023/07/30 01:31:15;;;;;;;2.15;1.48;;;17.20;99.90;;;17.50;100.00;100479.72;5195258;28;20053;-49
2023/07/30 01:33:50;;;;;;;2.75;1.52;;;17.20;99.90;;;17.53;100.00;100479.69;5201565;28;20048;-49
2023/07/30 01:36:23;;;;;;;1.95;1.33;;;17.30;99.90;;;17.56;100.00;100479.72;5202241;28;20054;-50
2023/07/30 01:39:01;;;;;;;2.05;1.30;;;17.30;99.90;;;17.59;100.00;100484.97;5200983;28;20510;-49
2023/07/30 01:41:33;;;;;;;3.25;1.50;;;17.30;99.90;;;17.62;100.00;100489.38;5201390;28;20048;-49
2023/07/30 01:44:06;;;;;;;1.98;1.52;;;17.30;99.90;;;17.66;100.00;100484.97;5201792;28;20034;-49
2023/07/30 01:46:41;;;;;;;2.47;1.63;;;17.40;99.90;;;17.69;100.00;100492.91;5201487;28;20073;-50
2023/07/30 01:49:13;;;;;;;2.47;1.45;;;17.40;99.90;;;17.72;100.00;100493.81;5201230;28;20056;-48
2023/07/30 01:51:46;;;;;;;2.15;1.35;;;17.40;99.90;;;17.75;100.00;100503.50;5201473;28;20045;-49
2023/07/30 01:54:20;;;;;;;2.28;1.52;;;17.50;99.90;;;17.77;100.00;100499.97;5201749;28;20383;-49
2023/07/30 01:56:52;;;;;;;1.98;1.40;;;17.50;99.90;;;17.79;100.00;100502.59;5200890;28;20052;-49
2023/07/30 01:59:25;;;;;;;1.88;1.30;;;17.50;99.90;;;17.81;100.00;100500.88;5201425;28;20056;-49
2023/07/30 02:01:57;;;;;;;1.75;1.33;;;17.50;99.90;;;17.82;100.00;100497.34;5201124;28;20045;-49
2023/07/30 02:04:29;;;;;;;1.67;1.40;;;17.50;99.90;;;17.82;100.00;100498.22;5201877;28;20085;-49
2023/07/30 02:07:02;;;;;;;2.13;1.50;;;17.50;99.90;;;17.85;100.00;100492.06;5200922;28;20053;-49
2023/07/30 02:09:36;;;;;;;1.90;1.40;;;17.60;99.90;;;17.87;100.00;100495.59;5200881;28;20126;-49
2023/07/30 02:12:09;;;;;;;1.85;1.42;;;17.60;99.90;;;17.88;100.00;100492.06;5201364;28;20589;-49
2023/07/30 02:14:45;;;;;;;1.40;1.30;;;17.60;99.90;;;17.89;100.00;100485.91;5200822;28;20037;-49
2023/07/30 02:17:17;;;;;;;1.88;1.33;;;17.60;99.90;;;17.91;100.00;100492.06;5200619;28;20077;-49
2023/07/30 02:19:49;;;;;;;1.65;1.33;;;17.60;99.90;;;17.91;100.00;100492.06;5201194;28;20049;-49
2023/07/30 02:22:22;;;;;;;2.17;1.27;;;17.60;99.90;;;17.94;100.00;100485.94;5201412;28;20033;-49
2023/07/30 02:24:57;;;;;;;2.38;1.40;;;17.70;99.90;;;17.96;100.00;100478.88;5201198;28;20402;-49
2023/07/30 02:27:29;;;;;;;2.63;1.67;;;17.70;99.90;;;17.97;100.00;100481.50;5200294;28;20091;-49
2023/07/30 02:30:01;;;;;;;1.50;1.40;;;17.70;99.90;;;17.97;100.00;100478.00;5200751;28;20077;-50
2023/07/30 02:32:34;;;;;;;2.22;1.50;;;17.70;99.90;;;17.96;100.00;100482.41;5200994;28;20044;-49
2023/07/30 02:35:07;;;;;;;2.65;1.60;;;17.70;99.90;;;17.95;100.00;100483.28;5193004;28;20053;-50
2023/07/30 02:37:39;;;;;;;2.50;1.73;;;17.70;99.90;;;17.97;100.00;100481.50;5199445;28;20045;-49
2023/07/30 02:40:13;;;;;;;1.92;1.42;;;17.70;99.90;;;17.99;100.00;100492.06;5200856;28;20447;-51
2023/07/30 02:42:49;;;;;;;1.88;1.60;;;17.70;99.90;;;18.01;100.00;100485.06;5199843;28;20072;-49
2023/07/30 02:45:21;;;;;;;3.03;1.83;;;17.70;99.90;;;18.01;100.00;100478.00;5201099;28;20045;-50
2023/07/30 02:47:54;;;;;;;2.80;1.67;;;17.70;99.90;;;18.01;100.00;100482.41;5199795;28;20562;-49
2023/07/30 02:50:26;;;;;;;3.33;1.73;;;17.70;99.90;;;18.03;100.00;100491.19;5200291;28;20499;-49
2023/07/30 02:53:01;;;;;;;3.55;1.65;;;17.80;99.90;;;18.05;100.00;100482.38;5200488;28;20488;-49
2023/07/30 02:55:35;;;;;;;2.75;1.73;;;17.80;99.90;;;18.07;100.00;100477.13;5201012;28;20391;-49
2023/07/30 02:58:08;;;;;;;3.13;1.85;;;17.80;99.90;;;18.08;100.00;100487.69;5191967;28;20041;-49
2023/07/30 03:00:43;;;;;;;2.25;1.70;;;17.80;99.90;;;18.10;100.00;100482.38;5200358;28;20049;-49
2023/07/30 03:03:17;;;;;;;3.35;2.00;;;17.80;99.90;;;18.10;100.00;100493.81;5200367;28;20045;-49
2023/07/30 03:05:49;;;;;;;2.85;1.85;;;17.80;99.90;;;18.11;100.00;100484.16;5199854;28;20041;-50
2023/07/30 03:08:22;;;;;;;1.50;1.40;;;17.90;99.90;;;18.13;100.00;100492.97;5199708;28;20528;-50
2023/07/30 03:10:59;;;;;;;2.42;1.55;;;17.90;99.90;;;18.11;100.00;100495.56;5199999;28;20050;-49
2023/07/30 03:13:32;;;;;;;2.15;1.60;;;17.80;99.90;;;18.12;100.00;100510.50;5199928;28;20037;-49
2023/07/30 03:16:05;;;;;;;3.45;1.73;;;17.80;99.90;;;18.11;100.00;100506.13;5199718;28;20088;-50
2023/07/30 03:18:38;;;;;;;1.70;1.35;;;17.80;99.90;;;18.10;100.00;100509.66;5199356;28;20037;-49
2023/07/30 03:21:10;;;;;;;3.45;1.70;;;17.80;99.90;;;18.11;100.00;100507.88;5200385;28;20045;-49
2023/07/30 03:23:48;;;;;;;2.83;1.50;;;17.90;99.90;;;18.11;100.00;100516.66;5199974;28;20076;-50
2023/07/30 03:26:21;;;;;;;2.38;1.52;;;17.90;99.90;;;18.11;100.00;100521.94;5200326;28;20052;-50
2023/07/30 03:28:54;;;;;;;3.05;1.55;;;17.90;99.90;;;18.12;100.00;100518.44;5199256;28;20056;-49
2023/07/30 03:31:28;;;;;;;2.47;1.42;;;17.80;99.90;;;18.13;100.00;100520.22;5199792;28;20136;-50
2023/07/30 03:34:00;;;;;;;2.35;1.25;;;17.80;99.90;;;18.14;100.00;100521.97;5199747;28;20546;-49
2023/07/30 03:36:33;;;;;;;2.70;1.42;;;17.90;99.90;;;18.15;100.00;100529.00;5199600;28;20052;-50
2023/07/30 03:39:05;;;;;;;1.90;1.30;;;17.90;99.90;;;18.16;100.00;100527.22;5198917;28;20056;-50
2023/07/30 03:41:39;;;;;;;1.40;1.13;;;17.90;99.90;;;18.16;100.00;100522.84;5200054;28;20045;-51
2023/07/30 03:44:11;;;;;;;1.85;1.20;;;17.90;99.90;;;18.16;100.00;100525.47;5192291;28;20037;-49
2023/07/30 03:46:44;;;;;;;2.22;1.35;;;17.90;99.90;;;18.17;100.00;100529.88;5199707;28;20042;-49
2023/07/30 03:49:17;;;;;;;1.38;1.27;;;17.90;99.90;;;18.17;100.00;100524.59;5202443;28;20042;-49
2023/07/30 03:51:49;;;;;;;2.42;1.60;;;17.90;99.90;;;18.17;100.00;100532.50;5203789;28;20049;-49
2023/07/30 03:54:22;;;;;;;1.63;1.27;;;17.90;99.90;;;18.17;100.00;100527.22;5203823;28;20141;-49
2023/07/30 03:56:55;;;;;;;2.80;1.27;;;17.90;99.90;;;18.18;100.00;100528.09;5203853;28;20422;-50
2023/07/30 03:59:28;;;;;;;2.28;1.20;;;17.90;99.90;;;18.17;100.00;100526.34;5203610;28;20049;-49
2023/07/30 04:02:01;;;;;;;2.75;1.13;;;17.90;99.90;;;18.17;100.00;100524.59;5203546;28;20037;-51
2023/07/30 04:04:34;;;;;;;1.58;1.20;;;17.90;99.90;;;18.17;100.00;100532.50;5203875;28;20498;-50
2023/07/30 04:07:07;;;;;;;1.52;1.35;;;17.90;99.90;;;18.18;100.00;100528.97;5203154;28;20052;-50
2023/07/30 04:09:39;;;;;;;1.88;1.17;;;17.90;99.90;;;18.17;100.00;100529.88;5202865;28;20040;-50
2023/07/30 04:12:13;;;;;;;1.77;1.23;;;17.90;99.90;;;18.16;100.00;100541.31;5195711;28;20041;-50
2023/07/30 04:14:45;;;;;;;2.70;1.08;;;17.90;99.90;;;18.14;100.00;100543.06;5203378;28;20053;-49
2023/07/30 04:17:17;;;;;;;2.17;1.20;;;17.90;99.90;;;18.13;100.00;100548.34;5202981;28;20091;-50
2023/07/30 04:19:54;;;;;;;1.73;1.20;;;17.80;99.90;;;18.11;100.00;100543.06;5203312;28;20053;-48
2023/07/30 04:22:26;;;;;;;2.47;1.35;;;17.80;99.90;;;18.09;100.00;100550.09;5203347;28;20037;-49
2023/07/30 04:24:58;;;;;;;1.83;1.38;;;17.80;99.90;;;18.06;100.00;100543.94;5203219;28;20053;-49
2023/07/30 04:27:32;;;;;;;2.25;1.13;;;17.80;99.90;;;18.07;100.00;100553.63;5202712;28;20041;-48
2023/07/30 04:30:07;;;;;;;2.25;1.33;;;17.80;99.90;;;18.07;100.00;100551.88;5202910;28;20048;-48
2023/07/30 04:32:39;;;;;;;2.03;1.20;;;17.80;99.90;;;18.06;100.00;100552.75;5203074;28;20757;-49
2023/07/30 04:35:11;;;;;;;1.15;0.90;;;17.70;99.90;;;18.07;100.00;100557.13;5195792;28;20142;-50
2023/07/30 04:37:45;;;;;;;2.05;1.23;;;17.80;99.90;;;18.07;100.00;100553.63;5202106;28;20041;-48
2023/07/30 04:40:19;;;;;;;1.83;1.13;;;17.80;99.90;;;18.07;100.00;100551.88;5203131;28;20052;-50
2023/07/30 04:42:53;;;;;;;2.17;1.20;;;17.80;99.90;;;18.10;100.00;100566.78;5202976;28;20053;-49
2023/07/30 04:45:26;;;;;;;2.17;1.17;;;17.80;99.90;;;18.09;100.00;100557.13;5203100;28;20033;-49
2023/07/30 04:47:58;;;;;;;2.05;1.40;;;17.80;99.90;;;18.09;100.00;100560.63;5201831;28;20554;-50
2023/07/30 04:50:31;;;;;;;1.90;1.30;;;17.80;99.90;;;18.10;100.00;100556.25;5203232;28;20053;-49
2023/07/30 04:53:04;;;;;;;1.80;1.17;;;17.80;99.90;;;18.09;100.00;100555.38;5202300;28;20130;-49
2023/07/30 04:55:37;;;;;;;2.38;1.23;;;17.80;99.90;;;18.10;100.00;100551.84;5202820;28;20038;-50
2023/07/30 04:58:11;;;;;;;2.33;1.00;;;17.80;99.90;;;18.10;100.00;100554.47;5201502;28;20049;-50
2023/07/30 05:00:44;;;;;;;1.95;1.30;;;17.80;99.90;;;18.09;100.00;100549.22;5202068;28;20045;-51
2023/07/30 05:03:17;;;;;;;3.25;1.33;;;17.80;99.90;;;18.08;100.00;100558.88;5202798;28;20483;-49
2023/07/30 05:05:49;;;;;;;2.20;1.05;;;17.80;99.90;;;18.07;100.00;100557.13;5202286;28;20049;-49
2023/07/30 05:08:21;;;;;;;1.88;1.20;;;17.80;99.90;;;18.07;100.00;100558.91;5201842;28;20087;-49
2023/07/30 05:10:54;;;;;;;2.15;1.13;;;17.80;99.90;;;18.07;100.00;100567.69;5202173;28;20123;-51
2023/07/30 05:13:27;;;;;;;1.33;1.00;;;17.80;99.90;;;18.08;100.00;100569.44;5202746;28;20038;-49
2023/07/30 05:16:00;;;;;;;2.30;1.00;;;17.80;99.90;;;18.10;100.00;100566.78;5202423;28;20417;-50
2023/07/30 05:18:33;;;;;;;1.30;1.00;;;17.80;99.90;;;18.10;100.00;100564.16;5201716;28;20502;-49
2023/07/30 05:21:08;;;;;;;2.95;1.10;;;17.80;99.90;;;18.11;100.00;100565.91;5201639;28;20437;-49
2023/07/30 05:23:40;;;;;;;2.00;1.17;;;17.80;99.90;;;18.13;100.00;100561.53;5202393;28;20060;-50
2023/07/30 05:26:13;;;;;;;1.00;0.90;;;17.80;99.90;;;18.13;100.00;100567.69;5202364;28;20046;-49
2023/07/30 05:28:47;;;;;;;1.33;1.00;;;17.80;99.90;;;18.12;100.00;100565.91;5200929;28;20410;-49
2023/07/30 05:31:22;;;;;;;2.80;1.10;;;17.80;99.90;;;18.13;100.00;100566.81;5202302;28;20037;-50
2023/07/30 05:33:54;;;;;;;2.33;1.10;;;17.80;99.90;;;18.13;100.00;100565.06;5201903;28;20533;-50
2023/07/30 05:36:27;;;;;;;1.52;1.05;;;17.80;99.90;;;18.11;100.00;100556.25;5202134;28;20049;-50
2023/07/30 05:38:59;;;;;;;2.53;0.90;;;17.80;99.90;;;18.07;100.00;100559.78;5201227;28;20041;-49
2023/07/30 05:41:31;;;;;;;2.58;1.20;;;17.80;99.90;;;18.04;100.00;100570.31;5201849;28;20041;-49
2023/07/30 05:44:05;;;;;;;3.30;1.88;;;17.70;99.90;;;18.03;100.00;100565.91;5201850;28;20760;-50
2023/07/30 05:46:37;;;;;;;2.30;1.20;;;17.70;99.90;;;18.03;100.00;100571.19;5201945;28;20038;-50
2023/07/30 05:49:14;;;;;;;2.65;1.02;;;17.70;99.90;;;18.01;100.00;100574.72;5200956;28;20053;-49
2023/07/30 05:51:47;;;;;;;1.50;0.93;;;17.70;99.90;;;17.99;100.00;100571.16;5201352;28;20141;-50
2023/07/30 05:54:19;;;;;;;2.55;1.23;;;17.70;99.90;;;17.98;100.00;100578.22;5201755;28;20111;-50
2023/07/30 05:56:51;;;;;;;2.05;0.98;;;17.70;99.90;;;17.98;100.00;100567.66;5201057;28;20053;-49
2023/07/30 05:59:28;;;;;;;1.77;1.23;;;17.70;99.90;;;17.98;100.00;100574.69;5201484;28;20048;-50
2023/07/30 06:02:04;;;;;;;3.40;1.15;;;17.70;99.90;;;17.97;100.00;100565.91;5201389;28;20076;-50
2023/07/30 06:04:36;;;;;;;2.92;1.20;;;17.70;99.90;;;17.99;100.00;100574.69;5201728;28;20045;-49
2023/07/30 06:07:09;;;;;;;1.85;1.02;;;17.70;99.90;;;18.04;100.00;100567.66;5200659;28;20140;-48
2023/07/30 06:09:41;;;;;;;1.95;1.00;;;17.70;99.90;;;18.10;100.00;100572.06;5201705;28;20049;-50
2023/07/30 06:12:14;;;;;;;1.70;1.05;;;17.80;99.90;;;18.14;100.00;100568.56;5200663;28;20041;-49
2023/07/30 06:14:47;;;;;;;2.20;0.80;;;17.80;99.90;;;18.18;100.00;100576.47;5200762;28;20038;-48
2023/07/30 06:17:20;;;;;;;1.67;1.00;;;17.80;99.90;;;18.21;100.00;100585.28;5200513;28;20049;-49
2023/07/30 06:19:52;;;;;;;2.70;1.00;;;17.90;99.90;;;18.23;100.00;100583.50;5200906;28;20418;-49
2023/07/30 06:22:24;;;;;;;1.48;0.93;;;17.90;99.90;;;18.20;100.00;100578.25;5200764;28;20038;-49
2023/07/30 06:24:57;;;;;;;3.92;1.17;;;17.90;99.90;;;18.17;100.00;100579.97;5200685;28;20049;-48
2023/07/30 06:27:32;;;;;;;2.55;1.30;;;17.90;99.90;;;18.13;100.00;100580.88;5200280;28;20045;-49
2023/07/30 06:30:08;;;;;;;2.17;1.10;;;17.80;99.90;;;18.13;100.00;100585.28;5200857;28;20045;-49
2023/07/30 06:32:40;;;;;;;1.80;1.10;;;17.80;99.90;;;18.12;100.00;100587.00;5200590;28;20406;-49
2023/07/30 06:35:12;;;;;;;1.38;1.15;;;17.80;99.90;;;18.11;100.00;100587.88;5200796;28;20068;-49
2023/07/30 06:37:45;;;;;;;3.30;1.35;;;17.80;99.90;;;18.10;100.00;100583.50;5200237;28;20558;-49
2023/07/30 06:40:17;;;;;;;2.10;1.23;;;17.80;99.90;;;18.11;100.00;100584.38;5201191;28;20503;-50
2023/07/30 06:42:50;;;;;;;1.80;0.98;;;17.80;99.90;;;18.14;100.00;100593.19;5201826;28;20403;-49
2023/07/30 06:45:24;;;;;;;1.95;1.20;;;17.90;99.90;;;18.18;100.00;100608.13;5200807;28;20391;-48
2023/07/30 06:47:56;;;;;;;2.03;1.02;;;17.90;99.90;;;18.23;100.00;100610.78;5199515;28;20052;-49
2023/07/30 06:50:28;;;;;;;2.10;1.10;;;17.90;99.90;;;18.28;100.00;100616.06;5193068;28;20053;-49
2023/07/30 06:53:01;;;;;;;2.75;1.30;;;18.00;99.90;;;18.31;100.00;100634.50;5191983;28;20510;-49
2023/07/30 06:55:34;;;;;;;2.03;1.23;;;18.00;99.90;;;18.33;100.00;100641.56;5195159;28;20123;-49
2023/07/30 06:58:06;;;;;;;3.58;1.30;;;18.00;99.90;;;18.33;100.00;100638.06;5194798;28;20073;-46
2023/07/30 07:00:40;;;;;;;3.83;1.55;;;18.00;99.90;;;18.36;100.00;100643.31;5190475;28;20041;-48
2023/07/30 07:03:12;;;;;;;3.92;1.50;;;18.00;99.90;;;18.41;100.00;100652.13;5192245;28;20052;-49
2023/07/30 07:05:45;;;;;;;2.97;1.30;;;18.10;99.90;;;18.44;100.00;100647.72;5199842;28;20170;-49
2023/07/30 07:08:17;;;;;;;1.60;1.25;;;18.10;99.90;;;18.46;100.00;100642.47;5199365;28;20406;-49
2023/07/30 07:10:50;;;;;;;3.00;1.30;;;18.10;99.90;;;18.45;100.00;100643.31;5199841;28;20511;-48
2023/07/30 07:13:25;;;;;;;2.45;1.23;;;18.10;99.90;;;18.42;100.00;100645.97;5200251;28;20048;-49
2023/07/30 07:15:59;;;;;;;1.55;1.20;;;18.20;99.90;;;18.41;100.00;100638.94;5200133;28;20096;-48
2023/07/30 07:18:31;;;;;;;2.35;1.15;;;18.10;99.90;;;18.43;100.00;100645.09;5199524;28;20049;-48
2023/07/30 07:21:03;;;;;;;2.45;1.23;;;18.10;99.90;;;18.43;100.00;100645.09;5199560;28;20414;-48
2023/07/30 07:23:39;;;;;;;2.17;0.85;;;18.10;99.90;;;18.44;100.00;100652.13;5199210;28;20103;-48
2023/07/30 07:26:11;;;;;;;0.88;0.82;;;18.10;99.90;;;18.46;100.00;100639.81;5199794;28;20041;-49
2023/07/30 07:28:43;;;;;;;1.48;1.00;;;18.10;99.90;;;18.48;100.00;100645.09;5199703;28;20056;-49
2023/07/30 07:31:17;;;;;;;1.27;1.00;;;18.10;99.90;;;18.49;100.00;100642.44;5199652;28;20091;-50
2023/07/30 07:33:49;;;;;;;1.88;0.80;;;18.20;99.90;;;18.53;100.00;100638.06;5199405;28;20052;-49
2023/07/30 07:36:22;;;;;;;1.40;0.70;;;18.20;99.90;;;18.55;100.00;100629.25;5192334;28;20045;-49
2023/07/30 07:38:55;;;;;;;2.97;1.13;;;18.20;99.90;;;18.59;100.00;100631.03;5198566;28;20045;-49
2023/07/30 07:41:27;;;;;;;1.88;0.93;;;18.20;99.90;;;18.65;100.00;100643.34;5200048;28;20048;-49
2023/07/30 07:43:59;;;;;;;2.00;1.02;;;18.30;99.90;;;18.67;100.00;100645.13;5199667;28;20045;-49
2023/07/30 07:46:33;;;;;;;1.40;1.10;;;18.30;99.90;;;18.69;100.00;100643.34;5199977;28;20163;-49
2023/07/30 07:49:05;;;;;;;2.45;0.95;;;18.40;99.90;;;18.75;100.00;100652.16;5199004;28;20060;-48
2023/07/30 07:51:41;;;;;;;1.35;0.88;;;18.40;99.90;;;18.80;100.00;100658.31;5199935;28;20132;-48
2023/07/30 07:54:13;;;;;;;1.80;0.90;;;18.50;99.90;;;18.83;100.00;100656.53;5197080;28;20064;-49
2023/07/30 07:56:46;;;;;;;2.97;0.98;;;18.50;99.90;;;18.86;100.00;100645.09;5198338;28;20049;-48
2023/07/30 07:59:21;;;;;;;2.55;1.20;;;18.50;99.90;;;18.89;100.00;100655.66;5197212;28;20491;-49
2023/07/30 08:01:55;;;;;;;2.28;1.10;;;18.50;99.90;;;18.89;100.00;100651.25;5195040;28;20049;-48
2023/07/30 08:04:27;;;;;;;2.60;1.05;;;18.60;99.90;;;18.88;100.00;100660.06;5199489;28;20164;-50
2023/07/30 08:07:03;;;;;;;3.40;1.40;;;18.50;99.90;;;18.92;100.00;100658.31;5197910;28;20060;-48
2023/07/30 08:09:38;;;;;;;2.53;1.50;;;18.60;99.90;;;19.10;100.00;100650.31;5199183;28;20055;-49
2023/07/30 08:12:12;;;;;;;1.60;1.25;;;18.80;99.90;;;19.29;100.00;100650.28;5198801;28;20057;-49
2023/07/30 08:14:44;;;;;;;2.38;1.10;;;18.90;99.90;;;19.43;100.00;100656.38;5200446;28;20437;-48
2023/07/30 08:17:20;;;;;;;3.53;1.52;;;19.00;99.90;;;19.55;100.00;100655.47;5197929;28;20045;-47
2023/07/30 08:19:53;;;;;;;2.80;1.05;;;19.20;99.90;;;19.68;100.00;100652.78;5195989;28;20053;-49
2023/07/30 08:22:25;;;;;;;2.90;1.40;;;19.30;99.90;;;19.75;100.00;100662.44;5199055;28;20052;-49
2023/07/30 08:24:57;;;;;;;3.10;1.20;;;19.40;99.90;;;19.77;100.00;100660.69;5196088;28;20088;-48
2023/07/30 08:27:33;;;;;;;3.58;1.58;;;19.40;99.90;;;19.77;100.00;100660.69;5196461;28;20045;-48
2023/07/30 08:30:07;;;;;;;4.07;1.75;;;19.50;99.90;;;19.83;100.00;100661.56;5198700;28;20053;-48
2023/07/30 08:32:41;;;;;;;5.88;1.33;;;19.50;99.90;;;20.01;100.00;100658.78;5199300;28;20087;-49
2023/07/30 08:35:13;;;;;;;3.88;1.23;;;19.60;99.90;;;20.40;100.00;100660.28;5199476;28;20053;-48
2023/07/30 08:37:46;;;;;;;3.63;1.30;;;19.80;99.90;;;20.77;100.00;100668.84;5202633;28;20064;-49
2023/07/30 08:40:18;;;;;;;2.47;1.35;;;20.00;99.90;;;20.94;100.00;100665.19;5202917;28;20069;-50
2023/07/30 08:42:51;;;;;;;2.70;1.50;;;20.20;99.90;;;20.95;100.00;100666.94;5202868;28;20041;-50
2023/07/30 08:45:27;;;;;;;4.95;1.40;;;20.20;99.90;;;20.84;100.00;100662.59;5182775;28;20136;-48
2023/07/30 08:48:00;;;;;;;3.40;1.10;;;20.30;99.90;;;20.82;100.00;100666.16;5209736;28;20046;-48
2023/07/30 08:50:33;;;;;;;1.67;1.13;;;20.20;99.90;;;20.71;100.00;100658.31;5188521;28;20052;-48
2023/07/30 08:53:09;;;;;;;4.43;1.10;;;20.20;99.90;;;20.58;100.00;100664.59;5208527;28;20462;-49
2023/07/30 08:55:42;;;;;;;3.75;1.38;;;20.10;99.90;;;20.73;100.00;100667.09;5202632;28;20121;-47
2023/07/30 08:58:17;;;;;;;2.72;1.20;;;20.10;99.90;;;21.20;100.00;100668.44;5201809;28;20068;-47
2023/07/30 09:00:52;;;;;;;4.05;1.38;;;20.30;99.90;;;21.54;100.00;100682.22;5201464;28;20132;-47
2023/07/30 09:03:28;;;;;;;4.32;1.35;;;20.60;99.90;;;21.61;100.00;100673.28;5197901;28;20040;-47
2023/07/30 09:06:00;;;;;;;6.07;1.60;;;20.70;99.90;;;22.40;100.00;100679.28;5202158;28;20053;-48
2023/07/30 09:08:33;;;;;;;4.80;1.27;;;21.10;99.90;;;22.86;100.00;100677.66;5201895;28;20045;-47
2023/07/30 09:11:09;;;;;;;5.57;1.60;;;21.50;99.90;;;23.47;100.00;100681.84;5201706;28;20408;-45
2023/07/30 09:13:44;;;;;;;6.68;1.25;;;22.00;99.90;;;24.30;96.40;100688.94;5202746;28;20046;-45
2023/07/30 09:16:17;;;;;;;5.18;1.17;;;22.50;99.90;;;25.13;92.35;100680.69;5202239;28;20049;-46
2023/07/30 09:18:52;;;;;;;3.33;1.17;;;23.10;99.90;;;26.44;88.17;100686.66;5201782;28;20099;-46
2023/07/30 09:21:31;;;;;;;3.78;1.30;;;24.00;99.90;;;27.20;83.48;100693.91;5182414;28;20046;-46
2023/07/30 09:24:06;;;;;;;3.53;1.00;;;24.70;99.70;;;27.32;80.29;100695.25;5198841;28;20037;-46
2023/07/30 09:26:43;;;;;;;5.03;1.17;;;25.10;98.00;;;26.98;81.55;100690.19;5201778;28;20449;-45
2023/07/30 09:29:16;;;;;;;3.55;0.98;;;25.00;97.50;;;26.46;82.28;100691.94;5201585;28;20045;-45
2023/07/30 09:31:50;;;;;;;3.58;1.02;;;24.90;97.20;;;26.00;83.64;100689.81;5201885;28;20053;-45
2023/07/30 09:34:26;;;;;;;4.47;1.23;;;24.60;97.40;;;25.58;84.74;100696.34;5201839;28;20049;-45
2023/07/30 09:36:58;;;;;;;3.33;1.48;;;24.40;97.50;;;25.35;84.76;100701.44;5201579;28;20059;-45
2023/07/30 09:39:34;;;;;;;3.05;0.85;;;24.20;97.30;;;25.14;84.49;100701.09;5202115;28;20069;-45
2023/07/30 09:42:07;;;;;;;3.17;1.08;;;24.10;97.00;;;24.88;85.81;100701.75;5201814;28;20065;-45
2023/07/30 09:44:40;;;;;;;4.45;1.35;;;24.00;97.40;;;24.67;86.10;100701.44;5201309;28;20061;-45
2023/07/30 09:47:12;;;;;;;3.95;1.30;;;23.80;97.40;;;24.34;85.89;100701.34;5199704;28;20050;-45
2023/07/30 09:49:49;;;;;;;3.75;1.02;;;23.50;97.20;;;24.09;87.22;100699.19;5198274;28;20041;-45
2023/07/30 09:52:23;;;;;;;3.42;0.80;;;23.30;97.60;;;24.26;87.70;100705.94;5200400;28;20065;-45
2023/07/30 09:54:57;;;;;;;4.18;1.00;;;23.30;97.90;;;24.46;88.33;100708.16;5197380;28;20564;-44
2023/07/30 09:57:29;;;;;;;;;;;23.50;98.30;;;24.62;88.12;100705.06;5193707;28;20452;-45
2023/07/30 10:00:03;;;;;;;3.35;0.90;;;23.70;98.20;;;24.75;86.40;100697.66;5200292;28;19924;-45
2023/07/30 10:02:40;;;;;;;3.22;1.13;;;23.80;97.50;;;24.93;85.85;100700.78;5195085;28;20048;-45
2023/07/30 10:05:18;;;;;;;3.08;1.08;;;24.00;97.20;;;25.15;84.64;100699.31;5207411;28;20445;-45
2023/07/30 10:07:59;;;;;;;3.65;1.10;;;24.20;96.70;;;25.30;83.71;100698.94;5200273;28;20533;-45
2023/07/30 10:10:32;;;;;;;4.88;1.02;;;24.30;96.20;;;25.30;83.96;100690.91;5201185;28;20037;-45
2023/07/30 10:13:09;;;;;;;5.00;1.13;;;24.40;96.30;;;25.20;83.37;100708.06;5200382;28;20049;-44
2023/07/30 10:15:41;;;;;;;2.55;1.17;;;24.40;95.70;;;25.14;82.20;100703.78;5193511;28;20087;-45
2023/07/30 10:18:14;;;;;;;4.50;1.00;;;24.40;95.10;;;25.05;81.97;100709.38;5200361;28;20069;-45
2023/07/30 10:20:54;;;;;;;4.22;0.93;;;24.30;94.90;;;25.17;82.31;100717.06;5201204;28;20041;-45
2023/07/30 10:23:28;;;;;;;;;;;24.30;95.00;;;25.10;81.23;100710.13;5201060;28;20073;-44
2023/07/30 10:26:11;;;;;;;7.07;1.42;;;24.30;94.30;;;25.15;80.74;100715.31;5200978;28;19925;-49
2023/07/30 10:28:43;;;;;;;1.88;0.80;;;24.30;94.20;;;25.13;81.01;100715.38;5201027;28;20041;-49
2023/07/30 10:31:17;;;;;;;3.40;1.17;;;24.30;94.20;;;25.09;81.96;100720.81;5200271;28;20139;-50
2023/07/30 10:33:54;;;;;;;2.10;1.00;;;24.30;94.50;;;24.83;82.18;100708.13;5201189;28;20061;-49